sensor_id;sensor_type;location;lat;lon;timestamp;temperature;humidity
13798;DHT22;6970;51.340;3.240;2023-07-13T00:00:39;17.30;99.90
13798;DHT22;6970;51.340;3.240;2023-07-13T00:03:07;17.20;99.90
13798;DHT22;6970;51.340;3.240;2023-07-13T00:05:35;17.20;99.90
13798;DHT22;6970;51.340;3.240;2023-07-13T00:08:02;17.10;99.90
13798;DHT22;6970;51.340;3.240;2023-07-13T00:10:32;17.10;99.90
13798;DHT22;6970;51.340;3.240;2023-07-13T00:13:01;17.10;99.90
13798;DHT22;6970;51.340;3.240;2023-07-13T00:15:35;17.00;99.90
13798;DHT22;6970;51.340;3.240;2023-07-13T00:18:08;17.10;99.90
13798;DHT22;6970;51.340;3.240;2023-07-13T00:20:35;17.00;99.90
13798;DHT22;6970;51.340;3.240;2023-07-13T00:23:08;17.00;99.90
13798;DHT22;6970;51.340;3.240;2023-07-13T00:25:35;17.00;99.90
13798;DHT22;6970;51.340;3.240;2023-07-13T00:28:09;17.00;99.90
13798;DHT22;6970;51.340;3.240;2023-07-13T00:30:36;17.00;99.90
13798;DHT22;6970;51.340;3.240;2023-07-13T00:33:06;17.00;99.90
13798;DHT22;6970;51.340;3.240;2023-07-13T00:35:46;17.00;99.90
13798;DHT22;6970;51.340;3.240;2023-07-13T00:41:08;16.90;99.90
13798;DHT22;6970;51.340;3.240;2023-07-13T00:43:36;16.90;99.90
13798;DHT22;6970;51.340;3.240;2023-07-13T00:46:29;16.80;99.90
13798;DHT22;6970;51.340;3.240;2023-07-13T00:49:04;16.80;99.90
13798;DHT22;6970;51.340;3.240;2023-07-13T00:54:26;16.70;99.90
13798;DHT22;6970;51.340;3.240;2023-07-13T00:57:00;16.70;99.90
13798;DHT22;6970;51.340;3.240;2023-07-13T00:59:30;16.70;99.90
13798;DHT22;6970;51.340;3.240;2023-07-13T01:01:58;16.60;99.90
13798;DHT22;6970;51.340;3.240;2023-07-13T01:04:26;16.60;99.90
13798;DHT22;6970;51.340;3.240;2023-07-13T01:06:57;16.60;99.90
13798;DHT22;6970;51.340;3.240;2023-07-13T01:09:27;16.60;99.90
13798;DHT22;6970;51.340;3.240;2023-07-13T01:11:58;16.60;99.90
13798;DHT22;6970;51.340;3.240;2023-07-13T01:14:26;16.60;99.90
13798;DHT22;6970;51.340;3.240;2023-07-13T01:16:53;16.50;99.90
13798;DHT22;6970;51.340;3.240;2023-07-13T01:19:33;16.50;99.90
13798;DHT22;6970;51.340;3.240;2023-07-13T01:22:13;16.50;99.90
13798;DHT22;6970;51.340;3.240;2023-07-13T01:24:43;16.50;99.90
13798;DHT22;6970;51.340;3.240;2023-07-13T01:27:15;16.40;99.90
13798;DHT22;6970;51.340;3.240;2023-07-13T01:29:45;16.40;99.90
13798;DHT22;6970;51.340;3.240;2023-07-13T01:32:17;16.50;99.90
13798;DHT22;6970;51.340;3.240;2023-07-13T01:34:51;16.50;99.90
13798;DHT22;6970;51.340;3.240;2023-07-13T01:37:26;16.50;99.90
13798;DHT22;6970;51.340;3.240;2023-07-13T01:39:55;16.50;99.90
13798;DHT22;6970;51.340;3.240;2023-07-13T01:42:25;16.50;99.90
13798;DHT22;6970;51.340;3.240;2023-07-13T01:44:55;16.50;99.90
13798;DHT22;6970;51.340;3.240;2023-07-13T01:47:23;16.50;99.90
13798;DHT22;6970;51.340;3.240;2023-07-13T01:49:55;16.50;99.90
13798;DHT22;6970;51.340;3.240;2023-07-13T01:52:22;16.50;99.90
13798;DHT22;6970;51.340;3.240;2023-07-13T01:54:51;16.50;99.90
13798;DHT22;6970;51.340;3.240;2023-07-13T01:57:24;16.50;99.90
13798;DHT22;6970;51.340;3.240;2023-07-13T01:59:54;16.50;99.90
13798;DHT22;6970;51.340;3.240;2023-07-13T02:02:24;16.50;99.90
13798;DHT22;6970;51.340;3.240;2023-07-13T02:04:55;16.60;99.90
13798;DHT22;6970;51.340;3.240;2023-07-13T02:07:25;16.60;99.90
13798;DHT22;6970;51.340;3.240;2023-07-13T02:09:52;16.60;99.90
13798;DHT22;6970;51.340;3.240;2023-07-13T02:12:22;16.50;99.90
13798;DHT22;6970;51.340;3.240;2023-07-13T02:14:49;16.50;99.90
13798;DHT22;6970;51.340;3.240;2023-07-13T02:17:19;16.40;99.90
13798;DHT22;6970;51.340;3.240;2023-07-13T02:19:49;16.40;99.90
13798;DHT22;6970;51.340;3.240;2023-07-13T02:22:17;16.40;99.90
13798;DHT22;6970;51.340;3.240;2023-07-13T02:24:45;16.40;99.90
13798;DHT22;6970;51.340;3.240;2023-07-13T02:27:15;16.30;99.90
13798;DHT22;6970;51.340;3.240;2023-07-13T02:29:45;16.30;99.90
13798;DHT22;6970;51.340;3.240;2023-07-13T02:32:15;16.30;99.90
13798;DHT22;6970;51.340;3.240;2023-07-13T02:34:43;16.30;99.90
13798;DHT22;6970;51.340;3.240;2023-07-13T02:37:13;16.20;99.90
13798;DHT22;6970;51.340;3.240;2023-07-13T02:39:40;16.20;99.90
13798;DHT22;6970;51.340;3.240;2023-07-13T02:42:14;16.20;99.90
13798;DHT22;6970;51.340;3.240;2023-07-13T02:44:42;16.20;99.90
13798;DHT22;6970;51.340;3.240;2023-07-13T02:47:12;16.20;99.90
13798;DHT22;6970;51.340;3.240;2023-07-13T02:49:41;16.20;99.90
13798;DHT22;6970;51.340;3.240;2023-07-13T02:52:08;16.20;99.90
13798;DHT22;6970;51.340;3.240;2023-07-13T02:54:38;16.20;99.90
13798;DHT22;6970;51.340;3.240;2023-07-13T02:57:12;16.20;99.90
13798;DHT22;6970;51.340;3.240;2023-07-13T02:59:42;16.10;99.90
13798;DHT22;6970;51.340;3.240;2023-07-13T03:02:12;16.10;99.90
13798;DHT22;6970;51.340;3.240;2023-07-13T03:04:44;16.10;99.90
13798;DHT22;6970;51.340;3.240;2023-07-13T03:07:14;16.10;99.90
13798;DHT22;6970;51.340;3.240;2023-07-13T03:09:44;16.10;99.90
13798;DHT22;6970;51.340;3.240;2023-07-13T03:12:11;16.10;99.90
13798;DHT22;6970;51.340;3.240;2023-07-13T03:14:40;16.10;99.90
13798;DHT22;6970;51.340;3.240;2023-07-13T03:17:08;16.10;99.90
13798;DHT22;6970;51.340;3.240;2023-07-13T03:19:37;16.10;99.90
13798;DHT22;6970;51.340;3.240;2023-07-13T03:22:07;16.10;99.90
13798;DHT22;6970;51.340;3.240;2023-07-13T03:24:36;16.10;99.90
13798;DHT22;6970;51.340;3.240;2023-07-13T03:27:06;16.10;99.90
13798;DHT22;6970;51.340;3.240;2023-07-13T03:29:45;16.10;99.90
13798;DHT22;6970;51.340;3.240;2023-07-13T03:32:15;16.10;99.90
13798;DHT22;6970;51.340;3.240;2023-07-13T03:34:45;16.10;99.90
13798;DHT22;6970;51.340;3.240;2023-07-13T03:37:13;16.10;99.90
13798;DHT22;6970;51.340;3.240;2023-07-13T03:39:40;16.10;99.90
13798;DHT22;6970;51.340;3.240;2023-07-13T03:42:10;16.10;99.90
13798;DHT22;6970;51.340;3.240;2023-07-13T03:44:40;16.10;99.90
13798;DHT22;6970;51.340;3.240;2023-07-13T03:47:09;16.10;99.90
13798;DHT22;6970;51.340;3.240;2023-07-13T03:49:39;16.10;99.90
13798;DHT22;6970;51.340;3.240;2023-07-13T03:52:07;16.10;99.90
13798;DHT22;6970;51.340;3.240;2023-07-13T03:54:42;16.10;99.90
13798;DHT22;6970;51.340;3.240;2023-07-13T03:57:12;16.10;99.90
13798;DHT22;6970;51.340;3.240;2023-07-13T03:59:39;16.10;99.90
13798;DHT22;6970;51.340;3.240;2023-07-13T04:02:06;16.20;99.90
13798;DHT22;6970;51.340;3.240;2023-07-13T04:04:37;16.20;99.90
13798;DHT22;6970;51.340;3.240;2023-07-13T04:07:10;16.20;99.90
13798;DHT22;6970;51.340;3.240;2023-07-13T04:09:37;16.30;99.90
13798;DHT22;6970;51.340;3.240;2023-07-13T04:12:06;16.20;99.90
13798;DHT22;6970;51.340;3.240;2023-07-13T04:14:36;16.20;99.90
13798;DHT22;6970;51.340;3.240;2023-07-13T04:17:06;16.20;99.90
13798;DHT22;6970;51.340;3.240;2023-07-13T04:19:35;16.20;99.90
13798;DHT22;6970;51.340;3.240;2023-07-13T04:22:05;16.20;99.90
13798;DHT22;6970;51.340;3.240;2023-07-13T04:24:32;16.20;99.90
13798;DHT22;6970;51.340;3.240;2023-07-13T04:27:02;16.20;99.90
13798;DHT22;6970;51.340;3.240;2023-07-13T04:29:32;16.20;99.90
13798;DHT22;6970;51.340;3.240;2023-07-13T04:32:03;16.20;99.90
13798;DHT22;6970;51.340;3.240;2023-07-13T04:34:34;16.30;99.90
13798;DHT22;6970;51.340;3.240;2023-07-13T04:37:04;16.30;99.90
13798;DHT22;6970;51.340;3.240;2023-07-13T04:39:33;16.30;99.90
13798;DHT22;6970;51.340;3.240;2023-07-13T04:42:05;16.30;99.90
13798;DHT22;6970;51.340;3.240;2023-07-13T04:44:33;16.30;99.90
13798;DHT22;6970;51.340;3.240;2023-07-13T04:47:01;16.30;99.90
13798;DHT22;6970;51.340;3.240;2023-07-13T04:49:28;16.40;99.90
13798;DHT22;6970;51.340;3.240;2023-07-13T04:51:58;16.40;99.90
13798;DHT22;6970;51.340;3.240;2023-07-13T04:54:31;16.40;99.90
13798;DHT22;6970;51.340;3.240;2023-07-13T04:56:59;16.40;99.90
13798;DHT22;6970;51.340;3.240;2023-07-13T04:59:30;16.40;99.90
13798;DHT22;6970;51.340;3.240;2023-07-13T05:02:00;16.50;99.90
13798;DHT22;6970;51.340;3.240;2023-07-13T05:04:31;16.50;99.90
13798;DHT22;6970;51.340;3.240;2023-07-13T05:07:02;16.60;99.90
13798;DHT22;6970;51.340;3.240;2023-07-13T05:09:32;16.70;99.90
13798;DHT22;6970;51.340;3.240;2023-07-13T05:11:59;16.70;99.90
13798;DHT22;6970;51.340;3.240;2023-07-13T05:14:26;16.80;99.90
13798;DHT22;6970;51.340;3.240;2023-07-13T05:16:53;16.90;99.90
13798;DHT22;6970;51.340;3.240;2023-07-13T05:19:26;16.80;99.90
13798;DHT22;6970;51.340;3.240;2023-07-13T05:21:55;16.90;99.90
13798;DHT22;6970;51.340;3.240;2023-07-13T05:24:25;17.00;99.90
13798;DHT22;6970;51.340;3.240;2023-07-13T05:26:53;17.00;99.90
13798;DHT22;6970;51.340;3.240;2023-07-13T05:29:22;17.10;99.90
13798;DHT22;6970;51.340;3.240;2023-07-13T05:31:52;17.20;99.90
13798;DHT22;6970;51.340;3.240;2023-07-13T05:34:21;17.20;99.90
13798;DHT22;6970;51.340;3.240;2023-07-13T05:36:49;17.30;99.90
13798;DHT22;6970;51.340;3.240;2023-07-13T05:39:17;17.30;99.90
13798;DHT22;6970;51.340;3.240;2023-07-13T05:41:47;17.30;99.90
13798;DHT22;6970;51.340;3.240;2023-07-13T05:44:14;17.40;99.90
13798;DHT22;6970;51.340;3.240;2023-07-13T05:46:44;17.40;99.90
13798;DHT22;6970;51.340;3.240;2023-07-13T05:49:13;17.40;99.90
13798;DHT22;6970;51.340;3.240;2023-07-13T05:51:46;17.40;99.90
13798;DHT22;6970;51.340;3.240;2023-07-13T05:54:13;17.50;99.90
13798;DHT22;6970;51.340;3.240;2023-07-13T05:56:42;17.60;99.90
13798;DHT22;6970;51.340;3.240;2023-07-13T05:59:09;17.60;99.90
13798;DHT22;6970;51.340;3.240;2023-07-13T06:01:38;17.70;99.90
13798;DHT22;6970;51.340;3.240;2023-07-13T06:04:06;17.70;99.90
13798;DHT22;6970;51.340;3.240;2023-07-13T06:06:37;17.70;99.90
13798;DHT22;6970;51.340;3.240;2023-07-13T06:09:05;17.80;99.90
13798;DHT22;6970;51.340;3.240;2023-07-13T06:11:32;17.80;99.90
13798;DHT22;6970;51.340;3.240;2023-07-13T06:14:02;17.80;99.90
13798;DHT22;6970;51.340;3.240;2023-07-13T06:16:33;17.90;99.90
13798;DHT22;6970;51.340;3.240;2023-07-13T06:19:02;18.00;99.90
13798;DHT22;6970;51.340;3.240;2023-07-13T06:21:32;18.00;99.90
13798;DHT22;6970;51.340;3.240;2023-07-13T06:24:03;18.00;99.90
13798;DHT22;6970;51.340;3.240;2023-07-13T06:26:32;18.20;99.90
13798;DHT22;6970;51.340;3.240;2023-07-13T06:28:59;18.20;99.90
13798;DHT22;6970;51.340;3.240;2023-07-13T06:31:29;18.20;99.90
13798;DHT22;6970;51.340;3.240;2023-07-13T06:33:58;18.20;99.90
13798;DHT22;6970;51.340;3.240;2023-07-13T06:36:26;18.30;99.90
13798;DHT22;6970;51.340;3.240;2023-07-13T06:38:56;18.30;99.90
13798;DHT22;6970;51.340;3.240;2023-07-13T06:41:23;18.30;99.90
13798;DHT22;6970;51.340;3.240;2023-07-13T06:43:56;18.40;99.90
13798;DHT22;6970;51.340;3.240;2023-07-13T06:46:25;18.40;99.90
13798;DHT22;6970;51.340;3.240;2023-07-13T06:48:52;18.50;99.90
13798;DHT22;6970;51.340;3.240;2023-07-13T06:51:22;18.60;99.90
13798;DHT22;6970;51.340;3.240;2023-07-13T06:53:53;18.70;99.90
13798;DHT22;6970;51.340;3.240;2023-07-13T06:56:21;18.80;99.90
13798;DHT22;6970;51.340;3.240;2023-07-13T06:58:48;18.80;99.90
13798;DHT22;6970;51.340;3.240;2023-07-13T07:01:18;18.90;99.90
13798;DHT22;6970;51.340;3.240;2023-07-13T07:03:48;19.10;99.90
13798;DHT22;6970;51.340;3.240;2023-07-13T07:06:22;19.20;99.90
13798;DHT22;6970;51.340;3.240;2023-07-13T07:08:52;19.30;99.90
13798;DHT22;6970;51.340;3.240;2023-07-13T07:11:24;19.40;99.90
13798;DHT22;6970;51.340;3.240;2023-07-13T07:13:53;19.60;99.90
13798;DHT22;6970;51.340;3.240;2023-07-13T07:16:27;19.60;99.90
13798;DHT22;6970;51.340;3.240;2023-07-13T07:18:57;19.80;99.90
13798;DHT22;6970;51.340;3.240;2023-07-13T07:21:27;19.80;99.90
13798;DHT22;6970;51.340;3.240;2023-07-13T07:23:56;19.90;99.90
13798;DHT22;6970;51.340;3.240;2023-07-13T07:26:26;20.00;99.90
13798;DHT22;6970;51.340;3.240;2023-07-13T07:29:00;20.20;99.90
13798;DHT22;6970;51.340;3.240;2023-07-13T07:31:33;20.30;99.90
13798;DHT22;6970;51.340;3.240;2023-07-13T07:34:06;20.40;99.90
13798;DHT22;6970;51.340;3.240;2023-07-13T07:36:35;20.60;99.90
13798;DHT22;6970;51.340;3.240;2023-07-13T07:39:05;20.60;99.90
13798;DHT22;6970;51.340;3.240;2023-07-13T07:41:36;20.70;99.90
13798;DHT22;6970;51.340;3.240;2023-07-13T07:44:09;20.90;99.90
13798;DHT22;6970;51.340;3.240;2023-07-13T07:46:40;21.00;99.90
13798;DHT22;6970;51.340;3.240;2023-07-13T07:49:08;21.20;99.90
13798;DHT22;6970;51.340;3.240;2023-07-13T07:51:37;21.50;99.90
13798;DHT22;6970;51.340;3.240;2023-07-13T07:54:06;21.70;99.90
13798;DHT22;6970;51.340;3.240;2023-07-13T07:56:33;21.60;99.90
13798;DHT22;6970;51.340;3.240;2023-07-13T07:59:04;21.50;99.90
13798;DHT22;6970;51.340;3.240;2023-07-13T08:01:37;21.70;99.90
13798;DHT22;6970;51.340;3.240;2023-07-13T08:04:27;21.70;99.90
13798;DHT22;6970;51.340;3.240;2023-07-13T08:06:57;21.90;99.90
13798;DHT22;6970;51.340;3.240;2023-07-13T08:09:24;22.20;99.90
13798;DHT22;6970;51.340;3.240;2023-07-13T08:11:52;22.20;99.90
13798;DHT22;6970;51.340;3.240;2023-07-13T08:14:23;22.20;99.90
13798;DHT22;6970;51.340;3.240;2023-07-13T08:16:57;22.40;99.90
13798;DHT22;6970;51.340;3.240;2023-07-13T08:19:24;22.50;99.90
13798;DHT22;6970;51.340;3.240;2023-07-13T08:21:52;22.70;99.90
13798;DHT22;6970;51.340;3.240;2023-07-13T08:24:23;22.70;99.90
13798;DHT22;6970;51.340;3.240;2023-07-13T08:26:52;22.70;99.70
13798;DHT22;6970;51.340;3.240;2023-07-13T08:29:20;22.80;99.90
13798;DHT22;6970;51.340;3.240;2023-07-13T08:31:53;23.20;99.50
13798;DHT22;6970;51.340;3.240;2023-07-13T08:34:24;23.30;99.60
13798;DHT22;6970;51.340;3.240;2023-07-13T08:36:54;23.60;99.40
13798;DHT22;6970;51.340;3.240;2023-07-13T08:39:24;23.90;99.10
13798;DHT22;6970;51.340;3.240;2023-07-13T08:42:07;24.20;98.20
13798;DHT22;6970;51.340;3.240;2023-07-13T08:44:57;24.00;98.60
13798;DHT22;6970;51.340;3.240;2023-07-13T08:47:47;24.00;98.10
13798;DHT22;6970;51.340;3.240;2023-07-13T08:50:18;24.00;97.60
13798;DHT22;6970;51.340;3.240;2023-07-13T08:52:47;24.10;98.00
13798;DHT22;6970;51.340;3.240;2023-07-13T08:55:24;24.20;97.50
13798;DHT22;6970;51.340;3.240;2023-07-13T08:58:15;24.30;97.50
13798;DHT22;6970;51.340;3.240;2023-07-13T09:01:08;24.50;97.50
13798;DHT22;6970;51.340;3.240;2023-07-13T09:03:50;24.50;97.40
13798;DHT22;6970;51.340;3.240;2023-07-13T09:06:29;24.40;96.70
13798;DHT22;6970;51.340;3.240;2023-07-13T09:14:48;24.80;96.30
13798;DHT22;6970;51.340;3.240;2023-07-13T09:17:21;24.80;96.30
13798;DHT22;6970;51.340;3.240;2023-07-13T09:19:57;25.00;95.80
13798;DHT22;6970;51.340;3.240;2023-07-13T09:22:34;24.80;96.50
13798;DHT22;6970;51.340;3.240;2023-07-13T09:25:29;24.60;96.40
13798;DHT22;6970;51.340;3.240;2023-07-13T09:28:23;25.00;96.50
13798;DHT22;6970;51.340;3.240;2023-07-13T09:33:55;25.20;95.70
13798;DHT22;6970;51.340;3.240;2023-07-13T09:36:31;25.20;96.00
13798;DHT22;6970;51.340;3.240;2023-07-13T09:42:14;25.20;95.70
13798;DHT22;6970;51.340;3.240;2023-07-13T09:44:55;25.40;95.80
13798;DHT22;6970;51.340;3.240;2023-07-13T09:47:28;25.50;94.30
13798;DHT22;6970;51.340;3.240;2023-07-13T09:50:01;25.70;94.50
13798;DHT22;6970;51.340;3.240;2023-07-13T09:52:42;25.80;94.40
13798;DHT22;6970;51.340;3.240;2023-07-13T09:55:38;26.10;94.80
13798;DHT22;6970;51.340;3.240;2023-07-13T09:58:15;26.40;95.00
13798;DHT22;6970;51.340;3.240;2023-07-13T10:01:01;26.50;95.10
13798;DHT22;6970;51.340;3.240;2023-07-13T10:03:37;26.70;95.30
13798;DHT22;6970;51.340;3.240;2023-07-13T10:06:25;26.70;95.20
13798;DHT22;6970;51.340;3.240;2023-07-13T10:08:58;26.80;95.20
13798;DHT22;6970;51.340;3.240;2023-07-13T10:11:30;26.70;95.40
13798;DHT22;6970;51.340;3.240;2023-07-13T10:16:38;26.50;93.90
13798;DHT22;6970;51.340;3.240;2023-07-13T10:19:21;26.20;92.50
13798;DHT22;6970;51.340;3.240;2023-07-13T10:22:02;25.80;92.70
13798;DHT22;6970;51.340;3.240;2023-07-13T10:24:37;25.70;92.80
13798;DHT22;6970;51.340;3.240;2023-07-13T10:27:28;25.60;92.50
13798;DHT22;6970;51.340;3.240;2023-07-13T10:30:17;25.80;94.20
13798;DHT22;6970;51.340;3.240;2023-07-13T10:32:47;26.00;93.30
13798;DHT22;6970;51.340;3.240;2023-07-13T10:35:18;26.10;93.10
13798;DHT22;6970;51.340;3.240;2023-07-13T10:38:05;26.40;93.10
13798;DHT22;6970;51.340;3.240;2023-07-13T10:40:43;26.80;93.30
13798;DHT22;6970;51.340;3.240;2023-07-13T10:43:20;26.90;92.90
13798;DHT22;6970;51.340;3.240;2023-07-13T10:45:57;27.00;93.00
13798;DHT22;6970;51.340;3.240;2023-07-13T10:48:25;27.00;93.50
13798;DHT22;6970;51.340;3.240;2023-07-13T10:50:55;27.00;93.50
13798;DHT22;6970;51.340;3.240;2023-07-13T10:53:32;27.00;93.50
13798;DHT22;6970;51.340;3.240;2023-07-13T10:59:09;26.90;93.40
13798;DHT22;6970;51.340;3.240;2023-07-13T11:01:53;27.00;93.50
13798;DHT22;6970;51.340;3.240;2023-07-13T11:04:25;27.00;92.90
13798;DHT22;6970;51.340;3.240;2023-07-13T11:06:58;27.10;92.80
13798;DHT22;6970;51.340;3.240;2023-07-13T11:09:35;27.20;92.70
13798;DHT22;6970;51.340;3.240;2023-07-13T11:15:33;26.80;93.20
13798;DHT22;6970;51.340;3.240;2023-07-13T11:18:35;26.80;92.90
13798;DHT22;6970;51.340;3.240;2023-07-13T11:21:19;26.80;91.60
13798;DHT22;6970;51.340;3.240;2023-07-13T11:24:16;26.90;91.70
13798;DHT22;6970;51.340;3.240;2023-07-13T11:31:59;27.10;91.90
13798;DHT22;6970;51.340;3.240;2023-07-13T11:34:38;27.30;92.20
13798;DHT22;6970;51.340;3.240;2023-07-13T11:37:11;27.20;91.60
13798;DHT22;6970;51.340;3.240;2023-07-13T11:39:43;27.20;91.50
13798;DHT22;6970;51.340;3.240;2023-07-13T11:42:16;27.10;91.70
13798;DHT22;6970;51.340;3.240;2023-07-13T11:44:47;27.20;91.60
13798;DHT22;6970;51.340;3.240;2023-07-13T11:47:33;27.30;92.10
13798;DHT22;6970;51.340;3.240;2023-07-13T11:50:00;27.50;92.00
13798;DHT22;6970;51.340;3.240;2023-07-13T11:52:36;27.60;91.60
13798;DHT22;6970;51.340;3.240;2023-07-13T11:55:14;27.40;92.00
13798;DHT22;6970;51.340;3.240;2023-07-13T11:57:50;27.50;92.40
13798;DHT22;6970;51.340;3.240;2023-07-13T12:00:22;27.60;92.70
13798;DHT22;6970;51.340;3.240;2023-07-13T12:02:53;27.60;92.30
13798;DHT22;6970;51.340;3.240;2023-07-13T12:05:21;27.50;92.60
13798;DHT22;6970;51.340;3.240;2023-07-13T12:07:48;27.60;92.50
13798;DHT22;6970;51.340;3.240;2023-07-13T12:10:27;27.40;92.80
13798;DHT22;6970;51.340;3.240;2023-07-13T12:13:05;27.40;92.20
13798;DHT22;6970;51.340;3.240;2023-07-13T12:18:22;27.40;92.60
13798;DHT22;6970;51.340;3.240;2023-07-13T12:20:57;27.30;93.20
13798;DHT22;6970;51.340;3.240;2023-07-13T12:23:35;27.40;93.40
13798;DHT22;6970;51.340;3.240;2023-07-13T12:26:06;27.40;93.40
13798;DHT22;6970;51.340;3.240;2023-07-13T12:28:43;27.20;93.20
13798;DHT22;6970;51.340;3.240;2023-07-13T12:34:07;26.70;94.60
13798;DHT22;6970;51.340;3.240;2023-07-13T12:36:37;26.80;94.50
13798;DHT22;6970;51.340;3.240;2023-07-13T12:41:44;26.90;94.30
13798;DHT22;6970;51.340;3.240;2023-07-13T12:44:15;27.00;93.60
13798;DHT22;6970;51.340;3.240;2023-07-13T12:47:09;27.20;92.90
13798;DHT22;6970;51.340;3.240;2023-07-13T12:49:47;27.10;91.30
13798;DHT22;6970;51.340;3.240;2023-07-13T12:52:27;27.10;91.30
13798;DHT22;6970;51.340;3.240;2023-07-13T12:55:02;27.20;91.60
13798;DHT22;6970;51.340;3.240;2023-07-13T12:58:03;27.40;91.10
13798;DHT22;6970;51.340;3.240;2023-07-13T13:00:39;27.30;90.60
13798;DHT22;6970;51.340;3.240;2023-07-13T13:06:02;27.10;92.00
13798;DHT22;6970;51.340;3.240;2023-07-13T13:08:35;27.00;92.10
13798;DHT22;6970;51.340;3.240;2023-07-13T13:11:09;27.00;92.50
13798;DHT22;6970;51.340;3.240;2023-07-13T13:13:38;27.10;92.90
13798;DHT22;6970;51.340;3.240;2023-07-13T13:18:41;26.90;93.40
13798;DHT22;6970;51.340;3.240;2023-07-13T13:21:11;26.80;93.30
13798;DHT22;6970;51.340;3.240;2023-07-13T13:23:41;26.70;93.50
13798;DHT22;6970;51.340;3.240;2023-07-13T13:26:12;26.70;93.60
13798;DHT22;6970;51.340;3.240;2023-07-13T13:28:42;26.70;93.20
13798;DHT22;6970;51.340;3.240;2023-07-13T13:31:14;26.80;93.10
13798;DHT22;6970;51.340;3.240;2023-07-13T13:33:45;26.80;92.60
13798;DHT22;6970;51.340;3.240;2023-07-13T13:36:21;26.70;92.70
13798;DHT22;6970;51.340;3.240;2023-07-13T13:38:50;26.50;92.80
13798;DHT22;6970;51.340;3.240;2023-07-13T13:41:19;26.30;93.30
13798;DHT22;6970;51.340;3.240;2023-07-13T13:43:49;26.10;94.00
13798;DHT22;6970;51.340;3.240;2023-07-13T13:46:24;25.90;94.40
13798;DHT22;6970;51.340;3.240;2023-07-13T13:48:57;26.10;94.50
13798;DHT22;6970;51.340;3.240;2023-07-13T13:51:27;26.20;94.40
13798;DHT22;6970;51.340;3.240;2023-07-13T13:53:58;26.20;94.40
13798;DHT22;6970;51.340;3.240;2023-07-13T13:56:28;26.20;94.50
13798;DHT22;6970;51.340;3.240;2023-07-13T13:58:57;26.30;94.50
13798;DHT22;6970;51.340;3.240;2023-07-13T14:01:27;26.10;94.50
13798;DHT22;6970;51.340;3.240;2023-07-13T14:04:02;26.10;94.80
13798;DHT22;6970;51.340;3.240;2023-07-13T14:06:32;26.00;94.50
13798;DHT22;6970;51.340;3.240;2023-07-13T14:09:02;26.00;94.40
13798;DHT22;6970;51.340;3.240;2023-07-13T14:11:30;25.90;94.50
13798;DHT22;6970;51.340;3.240;2023-07-13T14:13:59;26.00;94.60
13798;DHT22;6970;51.340;3.240;2023-07-13T14:16:29;26.00;94.80
13798;DHT22;6970;51.340;3.240;2023-07-13T14:19:01;26.00;95.20
13798;DHT22;6970;51.340;3.240;2023-07-13T14:21:30;26.00;95.20
13798;DHT22;6970;51.340;3.240;2023-07-13T14:23:58;25.90;95.40
13798;DHT22;6970;51.340;3.240;2023-07-13T14:26:26;25.90;95.10
13798;DHT22;6970;51.340;3.240;2023-07-13T14:28:57;25.90;95.50
13798;DHT22;6970;51.340;3.240;2023-07-13T14:31:27;25.90;95.60
13798;DHT22;6970;51.340;3.240;2023-07-13T14:34:00;25.70;95.70
13798;DHT22;6970;51.340;3.240;2023-07-13T14:36:30;25.50;96.00
13798;DHT22;6970;51.340;3.240;2023-07-13T14:39:01;25.30;96.10
13798;DHT22;6970;51.340;3.240;2023-07-13T14:41:32;25.30;95.90
13798;DHT22;6970;51.340;3.240;2023-07-13T14:44:04;25.20;95.90
13798;DHT22;6970;51.340;3.240;2023-07-13T14:46:35;25.10;95.80
13798;DHT22;6970;51.340;3.240;2023-07-13T14:49:06;25.20;96.00
13798;DHT22;6970;51.340;3.240;2023-07-13T14:51:38;25.40;96.10
13798;DHT22;6970;51.340;3.240;2023-07-13T14:54:11;25.40;95.50
13798;DHT22;6970;51.340;3.240;2023-07-13T14:56:41;25.30;95.40
13798;DHT22;6970;51.340;3.240;2023-07-13T14:59:08;25.30;95.40
13798;DHT22;6970;51.340;3.240;2023-07-13T15:01:39;25.20;95.30
13798;DHT22;6970;51.340;3.240;2023-07-13T15:04:08;25.00;95.50
13798;DHT22;6970;51.340;3.240;2023-07-13T15:06:52;25.00;95.60
13798;DHT22;6970;51.340;3.240;2023-07-13T15:09:20;25.10;95.40
13798;DHT22;6970;51.340;3.240;2023-07-13T15:11:49;25.00;94.70
13798;DHT22;6970;51.340;3.240;2023-07-13T15:14:19;25.00;94.30
13798;DHT22;6970;51.340;3.240;2023-07-13T15:16:48;24.90;93.90
13798;DHT22;6970;51.340;3.240;2023-07-13T15:19:20;24.70;93.20
13798;DHT22;6970;51.340;3.240;2023-07-13T15:21:49;24.60;93.90
13798;DHT22;6970;51.340;3.240;2023-07-13T15:24:29;24.50;94.20
13798;DHT22;6970;51.340;3.240;2023-07-13T15:26:56;24.60;94.90
13798;DHT22;6970;51.340;3.240;2023-07-13T15:29:26;24.60;94.80
13798;DHT22;6970;51.340;3.240;2023-07-13T15:31:56;24.50;95.20
13798;DHT22;6970;51.340;3.240;2023-07-13T15:34:27;24.50;95.00
13798;DHT22;6970;51.340;3.240;2023-07-13T15:36:57;24.50;94.60
13798;DHT22;6970;51.340;3.240;2023-07-13T15:39:27;24.50;94.00
13798;DHT22;6970;51.340;3.240;2023-07-13T15:41:57;24.40;94.00
13798;DHT22;6970;51.340;3.240;2023-07-13T15:44:31;24.40;93.90
13798;DHT22;6970;51.340;3.240;2023-07-13T15:47:01;24.50;93.60
13798;DHT22;6970;51.340;3.240;2023-07-13T15:49:30;24.40;93.70
13798;DHT22;6970;51.340;3.240;2023-07-13T15:52:00;24.20;94.20
13798;DHT22;6970;51.340;3.240;2023-07-13T15:54:28;24.00;94.80
13798;DHT22;6970;51.340;3.240;2023-07-13T15:57:01;23.80;95.50
13798;DHT22;6970;51.340;3.240;2023-07-13T15:59:28;23.70;96.00
13798;DHT22;6970;51.340;3.240;2023-07-13T16:01:55;23.60;96.60
13798;DHT22;6970;51.340;3.240;2023-07-13T16:04:25;23.50;97.00
13798;DHT22;6970;51.340;3.240;2023-07-13T16:06:54;23.30;96.90
13798;DHT22;6970;51.340;3.240;2023-07-13T16:09:22;23.30;97.00
13798;DHT22;6970;51.340;3.240;2023-07-13T16:11:50;23.40;97.20
13798;DHT22;6970;51.340;3.240;2023-07-13T16:14:18;23.30;97.00
13798;DHT22;6970;51.340;3.240;2023-07-13T16:16:50;23.30;96.90
13798;DHT22;6970;51.340;3.240;2023-07-13T16:19:23;23.40;96.90
13798;DHT22;6970;51.340;3.240;2023-07-13T16:21:58;23.40;96.70
13798;DHT22;6970;51.340;3.240;2023-07-13T16:24:30;23.40;97.00
13798;DHT22;6970;51.340;3.240;2023-07-13T16:27:00;23.40;97.20
13798;DHT22;6970;51.340;3.240;2023-07-13T16:29:34;23.30;97.20
13798;DHT22;6970;51.340;3.240;2023-07-13T16:32:20;23.20;97.60
13798;DHT22;6970;51.340;3.240;2023-07-13T16:34:47;23.10;97.80
13798;DHT22;6970;51.340;3.240;2023-07-13T16:37:20;23.00;98.00
13798;DHT22;6970;51.340;3.240;2023-07-13T16:39:59;23.10;98.20
13798;DHT22;6970;51.340;3.240;2023-07-13T16:42:29;23.00;98.60
13798;DHT22;6970;51.340;3.240;2023-07-13T16:44:57;23.00;98.60
13798;DHT22;6970;51.340;3.240;2023-07-13T16:47:31;23.00;98.50
13798;DHT22;6970;51.340;3.240;2023-07-13T16:50:01;22.90;98.40
13798;DHT22;6970;51.340;3.240;2023-07-13T16:52:30;22.90;98.50
13798;DHT22;6970;51.340;3.240;2023-07-13T16:54:58;22.90;98.50
13798;DHT22;6970;51.340;3.240;2023-07-13T16:57:31;22.90;98.80
13798;DHT22;6970;51.340;3.240;2023-07-13T17:00:00;22.80;99.30